createdAt,value
2022-10-19T00:01:05.443Z,3.87
2022-10-19T00:03:33.022Z,3.50
2022-10-19T00:06:00.662Z,3.33
2022-10-19T00:08:27.497Z,3.10
2022-10-19T00:10:54.193Z,4.33
2022-10-19T00:13:20.907Z,4.00
2022-10-19T00:15:47.605Z,3.80
2022-10-19T00:18:14.261Z,3.87
2022-10-19T00:20:40.964Z,4.30
2022-10-19T00:23:07.652Z,3.80
2022-10-19T00:25:34.331Z,3.80
2022-10-19T00:28:01.432Z,3.23
2022-10-19T00:30:28.196Z,3.87
2022-10-19T00:32:55.004Z,3.60
2022-10-19T00:35:21.797Z,3.47
2022-10-19T00:37:48.540Z,3.90
2022-10-19T00:40:15.299Z,4.43
2022-10-19T00:42:41.989Z,3.50
2022-10-19T00:45:17.014Z,4.37
2022-10-19T00:47:45.071Z,3.57
2022-10-19T00:50:14.310Z,3.57
2022-10-19T00:52:41.611Z,3.70
2022-10-19T00:55:09.910Z,3.90
2022-10-19T00:57:36.892Z,3.17
2022-10-19T01:00:08.447Z,3.20
2022-10-19T01:02:36.195Z,3.43
2022-10-19T01:05:04.672Z,3.17
2022-10-19T01:07:32.059Z,3.47
2022-10-19T01:10:00.730Z,3.23
2022-10-19T01:12:54.493Z,3.37
2022-10-19T01:15:48.032Z,3.67
2022-10-19T01:18:49.807Z,3.67
2022-10-19T01:21:31.355Z,3.27
2022-10-19T01:24:34.810Z,2.80
2022-10-19T01:27:45.786Z,3.43
2022-10-19T01:30:17.475Z,3.00
2022-10-19T01:33:01.860Z,2.60
2022-10-19T01:35:32.308Z,3.43
2022-10-19T01:38:04.913Z,3.40
2022-10-19T01:40:42.601Z,4.30
2022-10-19T01:43:12.682Z,3.50
2022-10-19T01:46:14.510Z,3.07
2022-10-19T01:48:46.780Z,3.40
2022-10-19T01:51:19.267Z,3.40
2022-10-19T01:53:51.063Z,3.60
2022-10-19T01:56:20.858Z,3.67
2022-10-19T01:58:48.518Z,3.20
2022-10-19T02:01:19.796Z,4.17
2022-10-19T02:03:47.134Z,3.73
2022-10-19T02:06:14.586Z,6.00
2022-10-19T02:08:46.260Z,3.27
2022-10-19T02:11:13.127Z,3.70
2022-10-19T02:13:41.061Z,3.13
2022-10-19T02:16:13.665Z,3.47
2022-10-19T02:18:46.121Z,3.80
2022-10-19T02:21:12.883Z,3.60
2022-10-19T02:23:39.707Z,3.17
2022-10-19T02:26:06.769Z,3.67
2022-10-19T02:28:34.004Z,3.53
2022-10-19T02:31:01.709Z,3.73
2022-10-19T02:33:29.389Z,4.03
2022-10-19T02:35:57.292Z,3.57
2022-10-19T02:38:24.870Z,3.27
2022-10-19T02:40:59.938Z,3.73
2022-10-19T02:43:28.512Z,3.37
2022-10-19T02:46:14.540Z,3.90
2022-10-19T02:48:42.699Z,3.47
2022-10-19T02:51:37.664Z,3.30
2022-10-19T02:54:06.772Z,3.50
2022-10-19T02:56:34.683Z,3.60
2022-10-19T02:59:02.711Z,3.87
2022-10-19T03:01:29.444Z,3.93
2022-10-19T03:03:56.200Z,3.57
2022-10-19T03:06:22.895Z,3.63
2022-10-19T03:08:49.611Z,3.20
2022-10-19T03:11:16.314Z,3.73
2022-10-19T03:13:43.473Z,3.23
2022-10-19T03:16:11.992Z,3.33
2022-10-19T03:18:39.383Z,3.10
2022-10-19T03:21:08.733Z,3.20
2022-10-19T03:23:35.797Z,3.53
2022-10-19T03:26:02.568Z,3.40
2022-10-19T03:28:29.504Z,3.67
2022-10-19T03:30:56.445Z,3.33
2022-10-19T03:36:23.116Z,3.63
2022-10-19T03:38:54.510Z,3.60
2022-10-19T03:41:23.394Z,3.50
2022-10-19T03:43:50.496Z,3.90
2022-10-19T03:46:17.644Z,3.57
2022-10-19T03:48:44.782Z,3.43
2022-10-19T03:51:18.051Z,3.47
2022-10-19T03:53:45.660Z,2.93
2022-10-19T03:56:17.943Z,3.40
2022-10-19T03:58:46.537Z,3.03
2022-10-19T04:01:20.093Z,4.00
2022-10-19T04:03:47.063Z,3.60
2022-10-19T04:06:19.601Z,3.30
2022-10-19T04:08:50.035Z,3.33
2022-10-19T04:11:18.862Z,3.43
2022-10-19T04:13:49.378Z,3.10
2022-10-19T04:16:16.627Z,2.90
2022-10-19T04:18:43.512Z,3.70
2022-10-19T04:21:24.329Z,3.10
2022-10-19T04:23:53.352Z,4.37
2022-10-19T04:26:21.194Z,4.33
2022-10-19T04:28:47.997Z,3.47
2022-10-19T04:31:14.899Z,3.87
2022-10-19T04:33:42.286Z,3.40
2022-10-19T04:36:11.911Z,3.10
2022-10-19T04:38:39.157Z,3.23
2022-10-19T04:41:08.856Z,3.20
2022-10-19T04:43:36.017Z,3.40
2022-10-19T04:46:12.098Z,3.43
2022-10-19T04:48:40.030Z,3.13
2022-10-19T04:51:08.997Z,3.20
2022-10-19T04:53:37.702Z,3.23
2022-10-19T04:56:06.264Z,3.00
2022-10-19T04:58:33.231Z,3.80
2022-10-19T05:01:00.213Z,3.77
2022-10-19T05:03:27.053Z,3.57
2022-10-19T05:05:53.771Z,3.50
2022-10-19T05:08:20.479Z,3.40
2022-10-19T05:10:47.844Z,3.77
2022-10-19T05:13:14.701Z,3.17
2022-10-19T05:15:41.616Z,4.00
2022-10-19T05:18:08.368Z,4.20
2022-10-19T05:20:35.122Z,3.77
2022-10-19T05:23:06.208Z,4.20
2022-10-19T05:25:34.237Z,3.93
2022-10-19T05:28:01.005Z,4.33
2022-10-19T05:30:27.682Z,4.13
2022-10-19T05:32:54.365Z,3.77
2022-10-19T05:35:22.609Z,4.17
2022-10-19T05:37:54.069Z,4.03
2022-10-19T05:40:20.902Z,3.87
2022-10-19T05:42:47.668Z,3.83
2022-10-19T05:45:14.493Z,4.13
2022-10-19T05:47:41.273Z,4.20
2022-10-19T05:50:08.459Z,3.47
2022-10-19T05:52:35.196Z,3.77
2022-10-19T05:55:01.965Z,3.47
2022-10-19T05:57:28.772Z,3.70
2022-10-19T05:59:58.366Z,3.50
2022-10-19T06:02:25.148Z,3.50
2022-10-19T06:04:51.977Z,3.73
2022-10-19T06:07:18.755Z,4.00
2022-10-19T06:09:46.099Z,4.07
2022-10-19T06:12:14.105Z,4.30
2022-10-19T06:14:43.059Z,3.63
2022-10-19T06:17:09.884Z,4.07
2022-10-19T06:19:37.080Z,4.17
2022-10-19T06:22:03.914Z,4.70
2022-10-19T06:24:30.640Z,3.80
2022-10-19T06:26:57.362Z,3.80
2022-10-19T06:29:24.119Z,4.37
2022-10-19T06:31:52.058Z,4.00
2022-10-19T06:34:18.856Z,4.20
2022-10-19T06:36:45.603Z,4.63
2022-10-19T06:39:12.283Z,4.23
2022-10-19T06:41:39.086Z,3.90
2022-10-19T06:44:05.896Z,4.67
2022-10-19T06:46:33.888Z,4.97
2022-10-19T06:49:01.954Z,4.23
2022-10-19T06:51:30.524Z,4.10
2022-10-19T06:53:57.708Z,4.57
2022-10-19T06:56:25.732Z,4.87
2022-10-19T06:58:52.979Z,4.47
2022-10-19T07:01:20.136Z,4.47
2022-10-19T07:03:47.183Z,4.20
2022-10-19T07:06:14.456Z,4.70
2022-10-19T07:08:42.742Z,4.83
2022-10-19T07:11:17.834Z,4.80
2022-10-19T07:13:44.789Z,4.80
2022-10-19T07:16:18.011Z,4.47
2022-10-19T07:18:48.133Z,4.60
2022-10-19T07:21:16.456Z,4.70
2022-10-19T07:23:45.043Z,4.07
2022-10-19T07:26:14.960Z,3.80
2022-10-19T07:28:43.107Z,3.93
2022-10-19T07:31:13.151Z,4.30
2022-10-19T07:33:39.906Z,4.23
2022-10-19T07:36:09.550Z,3.93
2022-10-19T07:38:37.513Z,3.67
2022-10-19T07:41:09.996Z,3.57
2022-10-19T07:43:36.788Z,3.70
2022-10-19T07:46:17.671Z,3.83
2022-10-19T07:48:44.919Z,3.50
2022-10-19T07:51:13.755Z,3.97
2022-10-19T07:53:40.596Z,3.40
2022-10-19T07:56:12.941Z,3.43
2022-10-19T07:58:40.119Z,2.93
2022-10-19T08:01:08.673Z,2.93
2022-10-19T08:06:24.228Z,2.63
2022-10-19T08:08:52.257Z,3.23
2022-10-19T08:11:28.748Z,3.13
2022-10-19T08:13:58.524Z,3.17
2022-10-19T08:16:44.353Z,2.83
2022-10-19T08:19:13.943Z,2.70
2022-10-19T08:21:43.812Z,2.90
2022-10-19T08:24:12.654Z,3.00
2022-10-19T08:26:40.127Z,3.60
2022-10-19T08:29:19.305Z,2.37
2022-10-19T08:31:47.965Z,2.37
2022-10-19T08:34:15.406Z,4.23
2022-10-19T08:39:14.492Z,1.90
2022-10-19T08:41:41.243Z,2.00
2022-10-19T08:44:22.966Z,2.40
2022-10-19T08:47:16.504Z,2.43
2022-10-19T08:49:46.258Z,2.20
2022-10-19T08:52:21.133Z,2.10
2022-10-19T08:54:56.695Z,2.10
2022-10-19T08:57:45.807Z,2.07
2022-10-19T09:00:22.475Z,2.10
2022-10-19T09:03:02.673Z,1.97
2022-10-19T09:05:48.663Z,2.60
2022-10-19T09:08:17.843Z,1.50
2022-10-19T09:10:48.865Z,1.93
2022-10-19T09:13:41.671Z,1.77
2022-10-19T09:16:23.764Z,1.67
2022-10-19T09:18:50.898Z,1.50
2022-10-19T09:21:33.354Z,1.30
2022-10-19T09:24:32.842Z,1.40
2022-10-19T09:27:01.141Z,1.87
2022-10-19T09:29:47.626Z,1.30
2022-10-19T09:32:24.419Z,1.47
2022-10-19T09:34:54.857Z,1.63
2022-10-19T09:37:26.404Z,1.53
2022-10-19T09:39:55.535Z,1.30
2022-10-19T09:42:34.261Z,1.30
2022-10-19T09:45:13.346Z,1.80
2022-10-19T09:47:42.434Z,1.60
2022-10-19T09:50:23.691Z,1.70
2022-10-19T09:52:51.654Z,1.27
2022-10-19T09:55:38.672Z,1.47
2022-10-19T09:58:12.926Z,1.27
2022-10-19T10:00:42.856Z,1.50
2022-10-19T10:03:29.434Z,1.77
2022-10-19T10:05:59.162Z,1.30
2022-10-19T10:08:33.407Z,1.37
2022-10-19T10:11:08.493Z,1.03
2022-10-19T10:13:41.617Z,1.20
2022-10-19T10:16:11.730Z,1.20
2022-10-19T10:18:51.131Z,1.27
2022-10-19T10:21:25.442Z,1.80
2022-10-19T10:24:20.700Z,1.10
2022-10-19T10:26:53.315Z,1.40
2022-10-19T10:29:24.294Z,1.33
2022-10-19T10:31:55.220Z,1.50
2022-10-19T10:34:45.979Z,1.60
2022-10-19T10:37:29.703Z,1.90
2022-10-19T10:40:01.806Z,1.60
2022-10-19T10:42:36.604Z,1.67
2022-10-19T10:45:04.681Z,1.63
2022-10-19T10:47:31.752Z,1.50
2022-10-19T10:50:03.148Z,1.30
2022-10-19T10:52:31.366Z,1.30
2022-10-19T10:55:02.893Z,1.30
2022-10-19T10:57:37.516Z,1.67
2022-10-19T11:00:12.292Z,2.00
2022-10-19T11:03:08.098Z,1.50
2022-10-19T11:05:40.403Z,1.57
2022-10-19T11:08:12.807Z,1.57
2022-10-19T11:11:18.884Z,1.40
2022-10-19T11:14:00.144Z,1.27
2022-10-19T11:16:38.438Z,1.10
2022-10-19T11:19:18.584Z,1.50
2022-10-19T11:21:51.509Z,2.03
2022-10-19T11:24:27.079Z,1.80
2022-10-19T11:27:05.896Z,1.47
2022-10-19T11:29:32.518Z,1.80
2022-10-19T11:31:59.696Z,1.47
2022-10-19T11:34:52.199Z,2.10
2022-10-19T11:37:49.428Z,1.70
2022-10-19T11:40:33.781Z,1.67
2022-10-19T11:43:12.408Z,1.70
2022-10-19T11:46:02.356Z,1.77
2022-10-19T11:48:54.734Z,1.43
2022-10-19T11:51:27.647Z,1.20
2022-10-19T11:53:57.397Z,1.40
2022-10-19T11:57:04.248Z,1.60
2022-10-19T11:59:40.719Z,1.63
2022-10-19T12:02:19.843Z,1.50
2022-10-19T12:05:02.081Z,1.23
2022-10-19T12:08:01.570Z,1.17
2022-10-19T12:11:06.318Z,1.27
2022-10-19T12:13:52.777Z,1.50
2022-10-19T12:16:20.891Z,1.53
2022-10-19T12:19:00.853Z,1.43
2022-10-19T12:21:35.848Z,1.73
2022-10-19T12:24:06.525Z,1.37
2022-10-19T12:26:36.442Z,1.43
2022-10-19T12:29:13.554Z,1.60
2022-10-19T12:31:41.828Z,1.40
2022-10-19T12:34:32.250Z,1.67
2022-10-19T12:37:17.415Z,1.60
2022-10-19T12:40:08.449Z,1.40
2022-10-19T12:43:24.139Z,1.57
2022-10-19T12:46:13.579Z,1.70
2022-10-19T12:48:40.372Z,1.50
2022-10-19T12:51:12.331Z,1.60
2022-10-19T12:53:50.942Z,1.33
2022-10-19T12:56:26.808Z,1.40
2022-10-19T12:59:01.181Z,1.17
2022-10-19T13:01:34.003Z,1.37
2022-10-19T13:04:13.812Z,1.60
2022-10-19T13:06:45.077Z,1.70
2022-10-19T13:09:23.396Z,1.43
2022-10-19T13:12:25.622Z,1.50
2022-10-19T13:14:52.710Z,1.40
2022-10-19T13:17:34.920Z,1.30
2022-10-19T13:20:14.231Z,1.50
2022-10-19T13:22:45.617Z,1.33
2022-10-19T13:25:21.636Z,1.57
2022-10-19T13:27:52.380Z,1.33
2022-10-19T13:30:41.900Z,1.37
2022-10-19T13:33:27.474Z,1.37
2022-10-19T13:36:00.285Z,1.73
2022-10-19T13:38:40.851Z,1.60
2022-10-19T13:41:27.269Z,1.40
2022-10-19T13:44:06.839Z,1.30
2022-10-19T13:46:39.992Z,1.73
2022-10-19T13:49:27.823Z,1.40
2022-10-19T13:52:18.017Z,1.30
2022-10-19T13:55:02.996Z,1.23
2022-10-19T13:58:21.437Z,1.70
2022-10-19T14:00:48.082Z,1.67
2022-10-19T14:03:48.807Z,1.53
2022-10-19T14:06:38.284Z,1.60
2022-10-19T14:09:23.705Z,1.70
2022-10-19T14:12:04.316Z,1.60
2022-10-19T14:14:31.177Z,1.50
2022-10-19T14:17:03.221Z,1.60
2022-10-19T14:19:43.281Z,1.40
2022-10-19T14:22:33.904Z,1.33
2022-10-19T14:25:26.915Z,1.47
2022-10-19T14:28:04.736Z,1.10
2022-10-19T14:30:34.139Z,2.30
2022-10-19T14:33:07.163Z,1.50
2022-10-19T14:35:37.554Z,1.47
2022-10-19T14:38:08.507Z,1.73
2022-10-19T14:40:40.764Z,1.80
2022-10-19T14:43:19.344Z,1.67
2022-10-19T14:46:13.712Z,1.40
2022-10-19T14:48:42.456Z,1.20
2022-10-19T14:51:16.465Z,1.57
2022-10-19T14:53:58.108Z,2.00
2022-10-19T14:57:01.752Z,1.53
2022-10-19T14:59:38.477Z,1.70
2022-10-19T15:02:39.314Z,1.83
2022-10-19T15:05:15.436Z,1.67
2022-10-19T15:07:43.474Z,1.70
2022-10-19T15:10:45.738Z,1.90
2022-10-19T15:13:24.205Z,1.80
2022-10-19T15:15:53.119Z,1.53
2022-10-19T15:18:43.907Z,1.67
2022-10-19T15:21:17.772Z,2.43
2022-10-19T15:23:49.398Z,2.10
2022-10-19T15:26:18.624Z,2.17
2022-10-19T15:28:46.523Z,2.20
2022-10-19T15:31:19.463Z,1.80
2022-10-19T15:33:52.541Z,1.97
2022-10-19T15:36:21.051Z,2.67
2022-10-19T15:39:11.280Z,2.50
2022-10-19T15:41:45.929Z,2.63
2022-10-19T15:44:39.950Z,2.00
2022-10-19T15:47:16.169Z,2.53
2022-10-19T15:49:42.915Z,2.50
2022-10-19T15:52:31.827Z,2.60
2022-10-19T15:55:00.046Z,2.37
2022-10-19T15:57:35.775Z,2.03
2022-10-19T16:00:13.199Z,2.20
2022-10-19T16:02:39.963Z,2.50
2022-10-19T16:07:40.840Z,2.50
2022-10-19T16:10:12.722Z,2.53
2022-10-19T16:12:39.403Z,2.10
2022-10-19T16:15:06.751Z,2.70
2022-10-19T16:17:33.814Z,2.43
2022-10-19T16:20:00.680Z,2.57
2022-10-19T16:22:27.382Z,2.50
2022-10-19T16:24:54.054Z,2.53
2022-10-19T16:27:20.778Z,2.33
2022-10-19T16:29:47.600Z,2.43
2022-10-19T16:32:14.410Z,2.63
2022-10-19T16:34:41.418Z,2.40
2022-10-19T16:37:08.180Z,2.10
2022-10-19T16:39:35.047Z,2.40
2022-10-19T16:42:01.762Z,2.23
2022-10-19T16:44:28.496Z,2.60
2022-10-19T16:46:59.218Z,2.27
2022-10-19T16:49:26.636Z,2.50
2022-10-19T16:51:56.457Z,2.60
2022-10-19T16:54:25.807Z,2.10
2022-10-19T16:56:52.827Z,3.00
2022-10-19T16:59:19.653Z,3.03
2022-10-19T17:01:47.065Z,2.50
2022-10-19T17:04:17.332Z,2.70
2022-10-19T17:06:44.559Z,2.50
2022-10-19T17:11:58.134Z,2.77
2022-10-19T17:14:24.875Z,2.50
2022-10-19T17:16:51.661Z,2.40
2022-10-19T17:19:18.457Z,2.37
2022-10-19T17:21:45.243Z,3.43
2022-10-19T17:24:20.200Z,2.40
2022-10-19T17:26:49.870Z,2.67
2022-10-19T17:29:16.651Z,2.27
2022-10-19T17:31:43.561Z,2.30
2022-10-19T17:34:11.270Z,2.73
2022-10-19T17:39:18.172Z,2.50
2022-10-19T17:41:49.263Z,2.13
2022-10-19T17:44:17.615Z,2.60
2022-10-19T17:46:44.782Z,2.43
2022-10-19T17:49:12.650Z,2.10
2022-10-19T17:51:39.612Z,2.63
2022-10-19T17:54:09.607Z,2.60
2022-10-19T17:56:37.328Z,2.60
2022-10-19T17:59:05.041Z,2.63
2022-10-19T18:01:31.798Z,2.60
2022-10-19T18:03:58.578Z,2.77
2022-10-19T18:06:33.870Z,2.37
2022-10-19T18:09:02.874Z,2.93
2022-10-19T18:11:34.480Z,2.33
2022-10-19T18:14:01.824Z,3.30
2022-10-19T18:16:31.360Z,2.50
2022-10-19T18:19:00.594Z,2.70
2022-10-19T18:21:31.015Z,3.13
2022-10-19T18:24:00.162Z,2.60
2022-10-19T18:26:28.875Z,2.37
2022-10-19T18:28:56.774Z,4.30
2022-10-19T18:31:25.890Z,2.37
2022-10-19T18:33:58.719Z,2.63
2022-10-19T18:36:25.890Z,2.70
2022-10-19T18:38:54.836Z,2.53
2022-10-19T18:41:22.036Z,2.37
2022-10-19T18:43:57.473Z,2.83
2022-10-19T18:46:26.075Z,2.57
2022-10-19T18:48:53.761Z,2.57
2022-10-19T18:51:22.102Z,2.27
2022-10-19T18:53:49.252Z,2.37
2022-10-19T18:56:18.386Z,2.50
2022-10-19T18:58:45.472Z,2.53
2022-10-19T19:01:32.928Z,2.47
2022-10-19T19:04:06.875Z,2.17
2022-10-19T19:06:36.115Z,2.00
2022-10-19T19:09:07.094Z,2.70
2022-10-19T19:11:36.986Z,2.70
2022-10-19T19:14:06.817Z,2.30
2022-10-19T19:16:36.753Z,3.17
2022-10-19T19:19:03.860Z,2.13
2022-10-19T19:21:31.774Z,2.20
2022-10-19T19:24:03.134Z,2.37
2022-10-19T19:26:33.610Z,2.40
2022-10-19T19:29:01.151Z,2.43
2022-10-19T19:31:28.159Z,2.10
2022-10-19T19:33:55.035Z,2.47
2022-10-19T19:36:22.036Z,2.57
2022-10-19T19:38:51.028Z,2.50
2022-10-19T19:41:18.327Z,2.87
2022-10-19T19:43:45.166Z,2.60
2022-10-19T19:46:17.348Z,2.50
2022-10-19T19:48:46.612Z,2.93
2022-10-19T19:51:16.477Z,2.87
2022-10-19T19:53:43.341Z,3.10
2022-10-19T19:56:12.405Z,2.80
2022-10-19T19:58:40.173Z,2.73
2022-10-19T20:01:12.587Z,2.90
2022-10-19T20:03:40.878Z,2.80
2022-10-19T20:06:07.843Z,2.80
2022-10-19T20:08:36.295Z,2.73
2022-10-19T20:11:05.968Z,2.80
2022-10-19T20:13:32.883Z,2.60
2022-10-19T20:16:06.245Z,2.70
2022-10-19T20:18:33.066Z,3.13
2022-10-19T20:21:03.952Z,3.50
2022-10-19T20:23:31.209Z,2.80
2022-10-19T20:25:58.081Z,3.47
2022-10-19T20:28:26.604Z,3.07
2022-10-19T20:31:04.984Z,3.23
2022-10-19T20:33:33.472Z,2.97
2022-10-19T20:36:24.080Z,3.40
2022-10-19T20:38:55.987Z,3.00
2022-10-19T20:41:24.953Z,2.63
2022-10-19T20:43:53.741Z,2.90
2022-10-19T20:46:26.188Z,3.43
2022-10-19T20:48:54.731Z,3.33
2022-10-19T20:51:30.767Z,3.63
2022-10-19T20:54:01.390Z,3.37
2022-10-19T20:56:34.498Z,3.13
2022-10-19T20:59:13.627Z,3.47
2022-10-19T21:01:42.279Z,3.47
2022-10-19T21:04:12.140Z,3.70
2022-10-19T21:06:41.389Z,3.50
2022-10-19T21:09:09.320Z,3.27
2022-10-19T21:11:38.454Z,3.57
2022-10-19T21:14:07.674Z,3.73
2022-10-19T21:16:35.363Z,3.63
2022-10-19T21:19:04.650Z,2.93
2022-10-19T21:21:34.613Z,3.30
2022-10-19T21:24:08.018Z,3.20
2022-10-19T21:26:36.248Z,3.87
2022-10-19T21:29:04.406Z,3.10
2022-10-19T21:31:31.408Z,3.30
2022-10-19T21:33:58.232Z,2.90
2022-10-19T21:36:25.263Z,3.07
2022-10-19T21:38:55.433Z,3.80
2022-10-19T21:41:25.500Z,3.37
2022-10-19T21:43:54.184Z,3.40
2022-10-19T21:46:22.660Z,3.57
2022-10-19T21:48:50.195Z,4.30
2022-10-19T21:51:16.900Z,3.03
2022-10-19T21:53:44.119Z,3.63
2022-10-19T21:56:10.864Z,3.80
2022-10-19T21:58:37.629Z,3.63
2022-10-19T22:01:08.376Z,4.17
2022-10-19T22:03:35.032Z,3.70
2022-10-19T22:06:01.808Z,3.80
2022-10-19T22:08:28.581Z,3.40
2022-10-19T22:10:55.635Z,4.27
2022-10-19T22:13:22.314Z,4.07
2022-10-19T22:15:49.096Z,4.20
2022-10-19T22:18:15.822Z,3.83
2022-10-19T22:20:42.500Z,4.13
2022-10-19T22:23:09.288Z,4.10
2022-10-19T22:25:36.321Z,3.87
2022-10-19T22:28:03.397Z,4.07
2022-10-19T22:30:30.246Z,4.40
2022-10-19T22:32:56.954Z,4.50
2022-10-19T22:35:23.680Z,3.87
2022-10-19T22:37:50.439Z,4.07
2022-10-19T22:40:17.185Z,5.10
2022-10-19T22:43:21.939Z,4.20
2022-10-19T22:45:50.158Z,3.73
2022-10-19T22:48:18.100Z,4.63
2022-10-19T22:50:45.257Z,4.37
2022-10-19T22:53:12.616Z,4.50
2022-10-19T22:55:41.197Z,4.50
2022-10-19T22:58:09.327Z,4.10
2022-10-19T23:00:36.386Z,4.33
2022-10-19T23:03:03.183Z,4.80
2022-10-19T23:05:30.198Z,4.33
2022-10-19T23:07:57.026Z,4.80
2022-10-19T23:10:23.846Z,4.20
2022-10-19T23:12:52.478Z,4.60
2022-10-19T23:15:20.919Z,5.03
2022-10-19T23:17:48.185Z,3.97
2022-10-19T23:20:15.124Z,4.30
2022-10-19T23:22:41.950Z,4.27
2022-10-19T23:25:09.371Z,4.83
2022-10-19T23:27:36.362Z,5.40
2022-10-19T23:30:04.270Z,4.47
2022-10-19T23:32:31.055Z,4.83
2022-10-19T23:34:57.807Z,4.87
2022-10-19T23:37:24.766Z,4.83
2022-10-19T23:39:51.480Z,4.67
2022-10-19T23:42:18.207Z,4.30
2022-10-19T23:44:44.944Z,4.73
2022-10-19T23:47:11.728Z,4.57
2022-10-19T23:49:38.451Z,4.80
2022-10-19T23:52:05.427Z,5.53
2022-10-19T23:54:32.224Z,7.03
2022-10-19T23:56:58.989Z,5.13
2022-10-19T23:59:25.675Z,5.63
